Time;durP1;ratioP1;P1;durP2;ratioP2;P2;SDS_P1;SDS_P2;PMS_P1;PMS_P2;Temp;Humidity;BMP_temperature;BMP_pressure;BME280_temperature;BME280_humidity;BME280_pressure;Samples;Min_cycle;Max_cycle;Signal;HPM_P1;HPM_P2
2021/06/29 00:02:28;;;;;;;;;;;;;;;;;;;;;
2021/06/29 00:09:18;;;;;;;;;;;;;;;;;;;;;
2021/06/29 00:29:40;;;;;;;36.20;25.13;;;19.80;99.90;;;;;;5054728;28;20029;-68
2021/06/29 00:32:06;;;;;;;31.20;26.52;;;19.80;99.90;;;;;;5054827;28;20360;-68
2021/06/29 00:34:32;;;;;;;31.35;24.73;;;19.80;99.90;;;;;;5053503;28;20036;-68
2021/06/29 00:36:57;;;;;;;35.20;28.63;;;19.80;99.90;;;;;;5055307;28;20024;-68
2021/06/29 00:39:23;;;;;;;31.38;26.08;;;19.80;99.90;;;;;;5055167;28;20029;-68
2021/06/29 00:41:49;;;;;;;31.88;27.17;;;19.80;99.90;;;;;;5054783;28;20028;-68
2021/06/29 00:44:19;;;;;;;35.30;29.02;;;19.70;99.90;;;;;;5053313;28;20086;-68
2021/06/29 00:46:45;;;;;;;39.03;29.25;;;19.80;99.90;;;;;;5053053;28;20025;-68
2021/06/29 00:49:10;;;;;;;37.60;31.10;;;19.80;99.90;;;;;;5055009;28;20021;-68
2021/06/29 00:51:36;;;;;;;34.55;30.75;;;19.90;99.90;;;;;;5054936;28;20402;-68
2021/06/29 00:54:01;;;;;;;36.53;31.60;;;19.90;99.90;;;;;;5054883;28;20110;-68
2021/06/29 00:56:27;;;;;;;34.08;28.17;;;19.80;99.90;;;;;;5053437;28;20037;-68
2021/06/29 00:58:53;;;;;;;39.72;32.92;;;19.80;99.90;;;;;;5054809;28;20363;-68
2021/06/29 01:01:18;;;;;;;35.97;31.60;;;19.80;99.90;;;;;;5054401;28;20035;-68
2021/06/29 01:03:44;;;;;;;39.97;32.25;;;19.80;99.90;;;;;;5054444;28;20025;-68
2021/06/29 01:06:12;;;;;;;37.33;31.42;;;19.90;99.90;;;;;;5052881;28;20052;-68
2021/06/29 01:08:38;;;;;;;41.85;32.35;;;19.90;99.90;;;;;;5054062;28;20021;-68
2021/06/29 01:11:04;;;;;;;37.05;31.38;;;19.90;99.90;;;;;;5054291;28;20107;-68
2021/06/29 01:13:31;;;;;;;33.63;29.85;;;20.00;99.90;;;;;;5054282;28;20104;-68
2021/06/29 01:15:58;;;;;;;39.95;35.38;;;20.00;99.90;;;;;;5054209;28;20483;-68
2021/06/29 01:18:24;;;;;;;46.72;35.80;;;20.00;99.90;;;;;;5054184;28;20460;-68
2021/06/29 01:20:49;;;;;;;47.85;38.78;;;19.90;99.90;;;;;;5054455;28;20025;-68
2021/06/29 01:23:18;;;;;;;50.67;39.20;;;19.90;99.90;;;;;;5052508;28;20451;-68
2021/06/29 01:25:45;;;;;;;53.22;43.28;;;19.90;99.90;;;;;;5053372;28;20017;-68
2021/06/29 01:28:22;;;;;;;48.53;38.25;;;19.90;99.90;;;;;;5054038;28;20024;-68
2021/06/29 01:31:05;;;;;;;51.28;39.90;;;19.90;99.90;;;;;;5054278;28;20048;-68
2021/06/29 01:33:31;;;;;;;50.80;38.17;;;19.90;99.90;;;;;;5054235;28;20028;-68
2021/06/29 01:35:56;;;;;;;53.60;41.92;;;19.80;99.90;;;;;;5053627;28;20045;-69
2021/06/29 01:38:23;;;;;;;55.65;41.97;;;19.80;99.90;;;;;;5054158;28;20106;-68
2021/06/29 01:40:49;;;;;;;59.22;42.88;;;19.80;99.90;;;;;;5053818;28;20025;-68
2021/06/29 01:43:18;;;;;;;58.22;43.20;;;19.80;99.90;;;;;;5054026;28;20021;-68
2021/06/29 01:45:47;;;;;;;52.88;40.63;;;19.70;99.90;;;;;;5053576;28;20025;-68
2021/06/29 01:48:28;;;;;;;55.92;43.13;;;19.80;99.90;;;;;;5052190;28;20102;-68
2021/06/29 01:50:55;;;;;;;58.83;43.83;;;19.70;99.90;;;;;;5053717;28;20021;-68
2021/06/29 01:53:22;;;;;;;51.28;42.80;;;19.70;99.90;;;;;;5053938;28;20047;-68
2021/06/29 01:55:49;;;;;;;48.13;40.67;;;19.70;99.90;;;;;;5053642;28;20032;-68
2021/06/29 01:58:21;;;;;;;52.92;43.03;;;19.70;99.90;;;;;;5053760;28;20065;-68
2021/06/29 02:00:47;;;;;;;47.50;40.47;;;19.80;99.90;;;;;;5053594;28;20108;-68
2021/06/29 02:03:13;;;;;;;51.72;41.35;;;19.80;99.90;;;;;;5053602;28;20116;-68
2021/06/29 02:05:38;;;;;;;47.58;38.95;;;19.80;99.90;;;;;;5053582;28;20100;-68
2021/06/29 02:08:04;;;;;;;52.63;42.03;;;19.80;99.90;;;;;;5053834;28;20450;-69
2021/06/29 02:10:30;;;;;;;48.45;40.78;;;19.80;99.90;;;;;;5053476;28;20013;-68
2021/06/29 02:12:57;;;;;;;54.22;39.95;;;19.80;99.90;;;;;;5053729;28;20029;-68
2021/06/29 02:15:23;;;;;;;55.60;41.97;;;19.80;99.90;;;;;;5053751;28;20049;-68
2021/06/29 02:17:49;;;;;;;52.05;41.35;;;19.80;99.90;;;;;;5052290;28;20513;-68
2021/06/29 02:20:16;;;;;;;45.78;37.35;;;19.90;99.90;;;;;;5053708;28;20109;-68
2021/06/29 02:22:43;;;;;;;47.47;37.88;;;19.90;99.90;;;;;;5052186;28;20021;-68
2021/06/29 02:25:09;;;;;;;43.22;38.53;;;19.80;99.90;;;;;;5053641;28;20025;-68
2021/06/29 02:27:34;;;;;;;53.15;40.53;;;19.80;99.90;;;;;;5051754;28;20363;-68
2021/06/29 02:30:00;;;;;;;44.05;37.83;;;19.80;99.90;;;;;;5053576;28;20028;-68
2021/06/29 02:32:26;;;;;;;54.20;40.00;;;19.80;99.90;;;;;;5053056;28;20028;-68
2021/06/29 02:34:53;;;;;;;51.13;40.80;;;19.70;99.90;;;;;;5053297;28;20521;-68
2021/06/29 02:37:18;;;;;;;45.47;38.33;;;19.70;99.90;;;;;;5053167;28;20032;-68
2021/06/29 02:39:44;;;;;;;62.35;42.83;;;19.70;99.90;;;;;;5053479;28;20029;-69
2021/06/29 02:42:10;;;;;;;50.45;40.20;;;19.70;99.90;;;;;;5052825;28;20021;-69
2021/06/29 02:44:36;;;;;;;53.63;40.35;;;19.70;99.90;;;;;;5053430;28;20110;-68
2021/06/29 02:47:03;;;;;;;52.00;41.05;;;19.60;99.90;;;;;;5053444;28;20024;-68
2021/06/29 02:49:28;;;;;;;50.72;42.85;;;19.60;99.90;;;;;;5053375;28;20096;-68
2021/06/29 02:51:54;;;;;;;58.30;44.33;;;19.60;99.90;;;;;;5053347;28;20534;-69
2021/06/29 02:54:19;;;;;;;54.70;44.30;;;19.50;99.90;;;;;;5051564;28;20025;-68
2021/06/29 02:56:45;;;;;;;58.95;45.17;;;19.60;99.90;;;;;;5051546;28;20087;-68
2021/06/29 02:59:13;;;;;;;57.83;44.15;;;19.60;99.90;;;;;;5053314;28;20025;-68
2021/06/29 03:01:41;;;;;;;61.25;45.63;;;19.50;99.90;;;;;;5052894;28;20047;-68
2021/06/29 03:04:07;;;;;;;55.75;43.25;;;19.50;99.90;;;;;;5053259;28;20017;-68
2021/06/29 03:06:32;;;;;;;63.67;43.97;;;19.50;99.90;;;;;;5053229;28;20100;-68
2021/06/29 03:09:00;;;;;;;57.08;43.60;;;19.40;99.90;;;;;;5053378;28;20056;-68
2021/06/29 03:11:26;;;;;;;57.25;42.30;;;19.50;99.90;;;;;;5056864;28;20104;-68
2021/06/29 03:13:52;;;;;;;65.75;47.63;;;19.40;99.90;;;;;;5056587;28;20025;-68
2021/06/29 03:16:17;;;;;;;58.95;46.42;;;19.40;99.90;;;;;;5056509;28;20082;-68
2021/06/29 03:18:43;;;;;;;56.13;44.45;;;19.40;99.90;;;;;;5056489;28;20352;-68
2021/06/29 03:21:09;;;;;;;55.55;42.63;;;19.40;99.90;;;;;;5056720;28;20412;-68
2021/06/29 03:23:35;;;;;;;50.25;43.47;;;19.40;99.90;;;;;;5056019;28;20032;-68
2021/06/29 03:26:01;;;;;;;52.05;42.22;;;19.30;99.90;;;;;;5056532;28;20024;-68
2021/06/29 03:28:27;;;;;;;51.75;41.55;;;19.30;99.90;;;;;;5056560;28;20032;-68
2021/06/29 03:30:52;;;;;;;54.05;42.80;;;19.30;99.90;;;;;;5056498;28;20029;-68
2021/06/29 03:33:18;;;;;;;59.75;43.03;;;19.30;99.90;;;;;;5056410;28;20025;-68
2021/06/29 03:35:43;;;;;;;47.42;39.97;;;19.30;99.90;;;;;;5056154;28;20025;-68
2021/06/29 03:38:09;;;;;;;50.55;39.90;;;19.30;99.90;;;;;;5054930;28;20524;-69
2021/06/29 03:40:35;;;;;;;46.38;37.65;;;19.30;99.90;;;;;;5056335;28;20083;-68
2021/06/29 03:43:00;;;;;;;45.92;34.17;;;19.20;99.90;;;;;;5055917;28;20381;-68
2021/06/29 03:45:26;;;;;;;44.65;35.45;;;19.20;99.90;;;;;;5055960;28;20178;-68
2021/06/29 03:47:52;;;;;;;47.03;33.75;;;19.30;99.90;;;;;;5054505;28;20021;-68
2021/06/29 03:50:17;;;;;;;41.42;32.85;;;19.20;99.90;;;;;;5056327;28;20025;-68
2021/06/29 03:52:43;;;;;;;39.72;31.73;;;19.20;99.90;;;;;;5056371;28;20425;-68
2021/06/29 03:55:09;;;;;;;37.70;30.85;;;19.20;99.90;;;;;;5056186;28;20053;-68
2021/06/29 03:57:34;;;;;;;41.22;30.90;;;19.20;99.90;;;;;;5055697;28;20033;-69
2021/06/29 04:00:00;;;;;;;38.25;30.92;;;19.20;99.90;;;;;;5055854;28;20379;-68
2021/06/29 04:02:27;;;;;;;36.47;30.10;;;19.20;99.90;;;;;;5055325;28;20097;-69
2021/06/29 04:04:54;;;;;;;36.55;29.40;;;19.20;99.90;;;;;;5055884;28;20017;-69
2021/06/29 04:07:20;;;;;;;33.35;27.52;;;19.20;99.90;;;;;;5055284;28;20379;-68
2021/06/29 04:09:46;;;;;;;39.72;26.50;;;19.20;99.90;;;;;;5055807;28;20081;-68
2021/06/29 04:12:13;;;;;;;27.85;22.95;;;19.20;99.90;;;;;;5055195;28;20040;-68
2021/06/29 04:14:39;;;;;;;30.60;21.45;;;19.20;99.90;;;;;;5055686;28;20516;-69
2021/06/29 04:17:04;;;;;;;31.83;22.13;;;19.10;99.90;;;;;;5055637;28;20033;-68
2021/06/29 04:19:30;;;;;;;29.20;21.13;;;19.20;99.90;;;;;;5053795;28;20032;-68
2021/06/29 04:21:56;;;;;;;35.72;20.30;;;19.20;99.90;;;;;;5054943;28;20028;-68
2021/06/29 04:24:21;;;;;;;25.58;19.33;;;19.10;99.90;;;;;;5055243;28;20021;-68
2021/06/29 04:26:47;;;;;;;30.20;19.42;;;19.20;99.90;;;;;;5054482;28;20025;-68
2021/06/29 04:29:12;;;;;;;23.90;18.95;;;19.10;99.90;;;;;;5053993;28;20425;-68
2021/06/29 04:31:38;;;;;;;24.48;18.77;;;19.20;99.90;;;;;;5055349;28;20025;-69
2021/06/29 04:34:03;;;;;;;23.15;17.05;;;19.20;99.90;;;;;;5055298;28;20029;-68
2021/06/29 04:36:29;;;;;;;30.25;18.88;;;19.20;99.90;;;;;;5055259;28;20029;-69
2021/06/29 04:38:55;;;;;;;22.23;17.27;;;19.30;99.90;;;;;;5054678;28;20021;-69
2021/06/29 04:41:20;;;;;;;19.00;14.70;;;19.40;99.90;;;;;;5054032;28;20025;-68
2021/06/29 04:43:46;;;;;;;19.45;15.02;;;19.40;99.90;;;;;;5055155;28;20025;-69
2021/06/29 04:46:13;;;;;;;25.00;14.32;;;19.40;99.90;;;;;;5055076;28;20021;-69
2021/06/29 04:48:40;;;;;;;16.60;13.63;;;19.40;99.90;;;;;;5054511;28;20017;-69
2021/06/29 04:51:06;;;;;;;22.60;14.50;;;19.50;99.90;;;;;;5054711;28;20352;-69
2021/06/29 04:53:36;;;;;;;18.42;14.05;;;19.40;99.90;;;;;;5053799;28;20021;-69
2021/06/29 04:56:02;;;;;;;20.40;14.23;;;19.50;99.90;;;;;;5054908;28;20032;-69
2021/06/29 04:58:27;;;;;;;19.75;14.05;;;19.50;99.90;;;;;;5054287;28;20029;-68
2021/06/29 05:00:53;;;;;;;19.20;13.57;;;19.60;99.90;;;;;;5054534;28;20112;-69
2021/06/29 05:03:19;;;;;;;18.70;14.38;;;19.60;99.90;;;;;;5053996;28;20056;-69
2021/06/29 05:05:44;;;;;;;19.80;14.45;;;19.60;99.90;;;;;;5053289;28;20517;-69
2021/06/29 05:08:11;;;;;;;18.63;13.57;;;19.70;99.90;;;;;;5054698;28;20079;-69
2021/06/29 05:10:37;;;;;;;16.85;13.35;;;20.00;99.90;;;;;;5054665;28;20052;-69
2021/06/29 05:13:03;;;;;;;15.73;13.77;;;20.20;99.90;;;;;;5054378;28;20029;-69
2021/06/29 05:15:29;;;;;;;19.38;10.88;;;20.80;99.90;;;;;;5054509;28;20036;-69
2021/06/29 05:17:54;;;;;;;15.88;10.13;;;21.70;99.90;;;;;;5054511;28;20029;-69
2021/06/29 05:20:20;;;;;;;14.35;8.95;;;22.40;99.90;;;;;;5054168;28;20028;-69
2021/06/29 05:22:46;;;;;;;21.77;10.25;;;22.90;99.90;;;;;;5052644;28;20359;-69
2021/06/29 05:25:12;;;;;;;9.20;8.27;;;23.00;99.90;;;;;;5054304;28;20021;-69
2021/06/29 05:27:40;;;;;;;13.45;9.05;;;22.80;99.90;;;;;;5054347;28;20029;-69
2021/06/29 05:30:08;;;;;;;10.93;9.07;;;22.50;99.90;;;;;;5054290;28;20017;-69
2021/06/29 05:32:34;;;;;;;14.02;9.50;;;22.50;99.90;;;;;;5053580;28;20464;-69
2021/06/29 05:34:59;;;;;;;13.40;9.43;;;22.30;99.90;;;;;;5054168;28;20028;-69
2021/06/29 05:37:25;;;;;;;14.30;9.77;;;22.10;99.90;;;;;;5053876;28;20025;-69
2021/06/29 05:39:50;;;;;;;11.23;9.57;;;22.00;99.90;;;;;;5053818;28;20068;-69
2021/06/29 05:42:16;;;;;;;13.25;9.55;;;21.90;99.90;;;;;;5052558;28;20029;-69
2021/06/29 05:44:41;;;;;;;12.50;8.38;;;22.00;99.90;;;;;;5053998;28;20362;-69
2021/06/29 05:47:09;;;;;;;9.05;8.05;;;22.50;99.90;;;;;;5054015;28;20431;-69
2021/06/29 05:49:36;;;;;;;10.98;7.43;;;23.10;99.90;;;;;;5053494;28;20040;-69
2021/06/29 05:52:02;;;;;;;13.65;6.70;;;24.30;99.90;;;;;;5052474;28;20477;-69
2021/06/29 05:54:29;;;;;;;10.88;6.68;;;24.30;99.90;;;;;;5053751;28;20025;-69
2021/06/29 05:56:55;;;;;;;8.25;6.18;;;23.90;99.90;;;;;;5053849;28;20135;-69
2021/06/29 05:59:20;;;;;;;10.23;6.10;;;23.40;99.90;;;;;;5053271;28;20040;-69
2021/06/29 06:01:46;;;;;;;9.52;6.32;;;23.30;99.90;;;;;;5051699;28;20045;-69
2021/06/29 06:04:11;;;;;;;9.32;7.03;;;23.30;99.90;;;;;;5052421;28;20454;-69
2021/06/29 06:06:44;;;;;;;11.52;7.53;;;23.10;99.90;;;;;;5053584;28;20496;-68
2021/06/29 06:09:10;;;;;;;8.93;7.13;;;22.80;99.90;;;;;;5052062;28;20071;-68
2021/06/29 06:11:35;;;;;;;12.13;7.18;;;22.50;99.90;;;;;;5053166;28;20025;-68
2021/06/29 06:14:01;;;;;;;8.98;7.25;;;22.30;99.90;;;;;;5053391;28;20048;-68
2021/06/29 06:16:27;;;;;;;10.25;7.15;;;21.90;99.90;;;;;;5051609;28;20032;-68
2021/06/29 06:18:52;;;;;;;10.10;8.18;;;21.70;99.90;;;;;;5053578;28;20036;-68
2021/06/29 06:21:18;;;;;;;11.25;8.68;;;21.50;99.90;;;;;;5051999;28;20021;-67
2021/06/29 06:23:43;;;;;;;12.30;8.80;;;21.50;99.90;;;;;;5053591;28;20029;-69
2021/06/29 06:26:09;;;;;;;10.23;8.70;;;21.40;99.90;;;;;;5051937;28;20467;-68
2021/06/29 06:28:34;;;;;;;12.73;8.57;;;21.50;99.90;;;;;;5051626;28;20394;-67
2021/06/29 06:31:00;;;;;;;8.45;7.38;;;21.70;99.90;;;;;;5052904;28;20098;-68
2021/06/29 06:33:26;;;;;;;11.65;7.45;;;22.00;99.90;;;;;;5052598;28;20025;-68
2021/06/29 06:35:51;;;;;;;10.43;7.28;;;22.30;99.90;;;;;;5052558;28;20037;-68
2021/06/29 06:38:17;;;;;;;11.35;7.65;;;22.50;99.90;;;;;;5051194;28;20048;-68
2021/06/29 06:40:42;;;;;;;8.25;7.35;;;22.60;99.90;;;;;;5047906;28;20159;-68
2021/06/29 06:43:08;;;;;;;9.27;7.75;;;22.40;99.90;;;;;;5051051;28;20060;-68
2021/06/29 06:45:34;;;;;;;11.20;8.10;;;22.30;99.90;;;;;;5054586;28;20017;-68
2021/06/29 06:47:59;;;;;;;8.98;8.07;;;22.30;99.90;;;;;;5054518;28;20387;-68
2021/06/29 06:50:25;;;;;;;10.88;8.50;;;22.60;99.90;;;;;;5056088;28;20021;-68
2021/06/29 06:52:51;;;;;;;12.30;7.90;;;22.70;99.90;;;;;;5056210;28;20453;-68
2021/06/29 06:55:24;;;;;;;9.57;7.78;;;23.30;99.90;;;;;;5056342;28;20494;-68
2021/06/29 06:57:50;;;;;;;13.88;7.93;;;23.10;99.90;;;;;;5055517;28;20478;-68
2021/06/29 07:00:16;;;;;;;7.97;7.05;;;23.40;99.90;;;;;;5055650;28;20072;-69
2021/06/29 07:02:42;;;;;;;8.85;7.40;;;23.30;99.90;;;;;;5036966;28;20076;-68
2021/06/29 07:05:08;;;;;;;13.95;8.90;;;23.00;99.90;;;;;;5054966;28;20191;-68
2021/06/29 07:07:34;;;;;;;10.82;8.50;;;22.70;99.90;;;;;;5055802;28;20027;-68
2021/06/29 07:10:00;;;;;;;9.25;8.45;;;22.50;99.90;;;;;;5056247;28;20023;-68
2021/06/29 07:12:26;;;;;;;11.65;9.02;;;22.30;99.90;;;;;;5055014;28;20033;-68
2021/06/29 07:14:51;;;;;;;10.68;8.65;;;22.20;99.90;;;;;;5053687;28;20032;-68
2021/06/29 07:17:17;;;;;;;10.10;9.07;;;22.10;99.90;;;;;;5055516;28;20040;-68
2021/06/29 07:19:42;;;;;;;9.82;8.90;;;22.30;99.90;;;;;;5056139;28;20060;-68
2021/06/29 07:22:08;;;;;;;12.85;8.75;;;22.30;99.90;;;;;;5055648;28;20039;-68
2021/06/29 07:24:33;;;;;;;8.40;7.50;;;22.60;99.90;;;;;;5055290;28;20462;-68
2021/06/29 07:26:59;;;;;;;10.05;7.85;;;22.80;99.90;;;;;;5055362;28;20040;-68
2021/06/29 07:29:25;;;;;;;7.88;7.15;;;22.70;99.90;;;;;;5054735;28;20025;-68
2021/06/29 07:31:52;;;;;;;8.43;7.55;;;22.70;99.90;;;;;;5055617;28;20036;-68
2021/06/29 07:34:17;;;;;;;7.63;6.80;;;22.80;99.90;;;;;;5054886;28;20039;-68
2021/06/29 07:36:43;;;;;;;10.48;7.57;;;22.90;99.90;;;;;;5054029;28;20025;-68
2021/06/29 07:39:09;;;;;;;14.77;7.75;;;22.90;99.90;;;;;;5055109;28;20106;-68
2021/06/29 07:41:34;;;;;;;10.32;7.80;;;23.00;99.90;;;;;;5054213;28;20482;-68
2021/06/29 07:44:00;;;;;;;8.75;7.30;;;23.10;99.90;;;;;;5053038;28;20025;-68
2021/06/29 07:46:26;;;;;;;10.60;7.57;;;23.30;99.90;;;;;;5055211;28;20021;-68
2021/06/29 07:48:52;;;;;;;8.75;7.72;;;23.40;99.90;;;;;;5053993;28;20021;-68
2021/06/29 07:51:17;;;;;;;7.97;7.22;;;23.60;99.90;;;;;;5053479;28;20024;-68
2021/06/29 07:53:43;;;;;;;8.13;7.32;;;23.70;99.90;;;;;;5053661;28;20029;-68
2021/06/29 07:56:14;;;;;;;7.93;7.13;;;24.20;99.90;;;;;;5053404;28;20083;-68
2021/06/29 07:58:42;;;;;;;7.75;6.85;;;24.30;99.90;;;;;;5055144;28;20055;-68
2021/06/29 08:01:08;;;;;;;6.55;5.97;;;24.60;99.90;;;;;;5054308;28;20129;-68
2021/06/29 08:03:33;;;;;;;7.68;5.63;;;25.10;99.90;;;;;;5053788;28;20108;-68
2021/06/29 08:05:59;;;;;;;6.90;5.45;;;25.00;99.90;;;;;;5054183;28;20021;-68
2021/06/29 08:08:25;;;;;;;6.60;5.43;;;25.10;99.90;;;;;;5054759;28;20055;-69
2021/06/29 08:10:50;;;;;;;6.40;5.75;;;24.90;99.90;;;;;;5053964;28;20028;-68
2021/06/29 08:13:16;;;;;;;6.25;5.75;;;24.80;99.90;;;;;;5054833;28;20471;-68
2021/06/29 08:15:42;;;;;;;7.57;6.82;;;24.50;99.90;;;;;;5053887;28;20126;-68
2021/06/29 08:18:08;;;;;;;8.80;6.10;;;24.20;99.90;;;;;;5050299;28;20484;-68
2021/06/29 08:20:33;;;;;;;11.45;6.30;;;24.10;99.90;;;;;;5052182;28;20025;-68
2021/06/29 08:22:59;;;;;;;6.30;5.70;;;24.20;99.90;;;;;;5053833;28;20033;-68
2021/06/29 08:25:25;;;;;;;8.15;6.10;;;23.90;99.90;;;;;;5053703;28;20028;-68
2021/06/29 08:27:51;;;;;;;6.13;5.55;;;23.90;99.90;;;;;;5052190;28;20390;-68
2021/06/29 08:30:18;;;;;;;6.40;5.80;;;24.00;99.90;;;;;;5041031;28;20104;-68
2021/06/29 08:32:43;;;;;;;7.38;5.90;;;23.90;99.90;;;;;;5051704;28;20083;-68
2021/06/29 08:35:10;;;;;;;7.00;6.10;;;23.80;99.90;;;;;;5054365;28;20501;-67
2021/06/29 08:37:38;;;;;;;8.45;5.45;;;23.70;99.90;;;;;;5035556;28;20028;-68
2021/06/29 08:40:06;;;;;;;6.53;5.55;;;23.90;99.90;;;;;;5053944;28;20108;-68
2021/06/29 08:42:36;;;;;;;6.38;5.57;;;23.90;99.90;;;;;;5051499;28;20117;-68
2021/06/29 08:45:04;;;;;;;8.75;5.63;;;23.80;99.90;;;;;;5052243;28;20017;-68
2021/06/29 08:47:29;;;;;;;6.95;5.57;;;24.10;99.90;;;;;;5050828;28;20067;-68
2021/06/29 08:49:55;;;;;;;6.75;5.57;;;24.20;99.90;;;;;;5049861;28;20415;-68
2021/06/29 08:52:21;;;;;;;6.50;5.90;;;24.20;99.90;;;;;;5071313;28;20032;-68
2021/06/29 08:54:49;;;;;;;6.53;5.93;;;24.20;99.90;;;;;;5053833;28;20025;-68
2021/06/29 08:57:14;;;;;;;7.00;5.97;;;24.60;99.90;;;;;;5052554;28;20095;-68
2021/06/29 08:59:40;;;;;;;7.35;6.55;;;24.70;99.90;;;;;;5068201;28;20465;-68
2021/06/29 09:02:06;;;;;;;7.32;6.63;;;24.80;99.90;;;;;;5070941;28;20047;-68
2021/06/29 09:04:55;;;;;;;7.15;6.55;;;24.80;99.90;;;;;;5053308;28;20486;-68
2021/06/29 09:07:27;;;;;;;7.10;6.50;;;25.00;99.90;;;;;;5043135;28;20025;-68
2021/06/29 09:09:57;;;;;;;11.25;8.52;;;24.60;99.90;;;;;;5052865;28;20020;-68
2021/06/29 09:12:47;;;;;;;10.82;9.65;;;24.50;99.90;;;;;;5051985;28;20039;-68
2021/06/29 09:15:36;;;;;;;12.45;11.25;;;23.90;99.90;;;;;;5051546;28;20029;-68
2021/06/29 09:20:49;;;;;;;16.80;13.43;;;23.70;99.90;;;;;;5110762;27;20420;-67
2021/06/29 09:23:18;;;;;;;15.85;13.23;;;24.00;99.90;;;;;;5110131;28;20073;-67
2021/06/29 09:25:47;;;;;;;14.70;13.18;;;24.40;99.90;;;;;;5110191;28;20027;-67
2021/06/29 09:28:20;;;;;;;15.60;13.93;;;24.40;99.90;;;;;;5110530;28;20055;-67
2021/06/29 09:30:48;;;;;;;16.73;15.02;;;23.90;99.90;;;;;;5083196;28;20029;-67
2021/06/29 09:33:25;;;;;;;15.40;13.70;;;23.70;99.90;;;;;;5105831;28;20107;-68
2021/06/29 09:35:53;;;;;;;17.70;15.20;;;23.60;99.90;;;;;;5109755;28;20032;-69
2021/06/29 09:38:24;;;;;;;15.25;13.60;;;23.50;99.90;;;;;;5108979;28;20020;-69
2021/06/29 09:40:54;;;;;;;19.27;14.48;;;23.20;99.90;;;;;;5109605;28;20039;-69
2021/06/29 09:43:21;;;;;;;15.65;13.65;;;22.80;99.90;;;;;;5109885;28;20469;-69
2021/06/29 09:45:51;;;;;;;16.75;12.65;;;23.10;99.90;;;;;;5113020;28;20107;-69
2021/06/29 09:48:26;;;;;;;14.30;12.80;;;23.20;99.90;;;;;;5109966;28;20421;-69
2021/06/29 09:50:54;;;;;;;16.48;13.32;;;23.10;99.90;;;;;;5109124;28;20011;-69
2021/06/29 09:53:25;;;;;;;16.05;12.57;;;22.90;99.90;;;;;;5109658;28;20024;-69
2021/06/29 09:55:54;;;;;;;15.10;13.60;;;23.00;99.90;;;;;;5109450;28;20526;-69
2021/06/29 09:58:21;;;;;;;13.73;12.25;;;23.10;99.90;;;;;;5109280;28;20020;-69
2021/06/29 10:00:50;;;;;;;12.55;11.23;;;23.40;99.90;;;;;;5109494;28;20016;-69
2021/06/29 10:03:25;;;;;;;16.08;11.68;;;23.60;99.90;;;;;;5108013;28;20019;-69
2021/06/29 10:05:52;;;;;;;11.75;10.65;;;23.80;99.90;;;;;;5108230;28;20035;-69
2021/06/29 10:08:23;;;;;;;9.50;8.60;;;24.20;99.90;;;;;;5109765;28;20016;-69
2021/06/29 10:10:49;;;;;;;9.30;8.23;;;24.60;99.90;;;;;;5109481;28;20015;-70
2021/06/29 10:13:17;;;;;;;7.63;6.93;;;25.10;99.90;;;;;;5109186;28;20015;-69
2021/06/29 10:15:43;;;;;;;8.13;7.43;;;25.00;99.90;;;;;;5109686;28;20637;-70
2021/06/29 10:18:09;;;;;;;8.05;7.25;;;25.50;99.90;;;;;;5109770;28;20103;-70
2021/06/29 10:20:49;;;;;;;8.35;7.40;;;25.80;99.90;;;;;;5114384;28;20039;-68
2021/06/29 10:23:16;;;;;;;8.90;7.90;;;26.20;99.90;;;;;;5093975;28;20412;-70
2021/06/29 10:25:43;;;;;;;9.43;8.57;;;26.40;99.90;;;;;;5086569;28;20048;-70
2021/06/29 10:28:12;;;;;;;8.52;7.60;;;26.00;99.90;;;;;;5107316;28;20420;-70
2021/06/29 10:30:39;;;;;;;7.93;6.28;;;25.60;99.90;;;;;;5102697;28;20024;-70
2021/06/29 10:33:06;;;;;;;8.05;6.82;;;25.40;99.90;;;;;;5092280;28;20568;-68
2021/06/29 10:35:32;;;;;;;9.82;8.05;;;24.90;99.90;;;;;;5095208;28;20050;-69
2021/06/29 10:37:57;;;;;;;9.40;7.22;;;24.50;99.90;;;;;;5095248;28;20055;-69
2021/06/29 10:40:24;;;;;;;8.10;7.22;;;24.60;99.90;;;;;;5095812;28;20058;-68
2021/06/29 10:42:50;;;;;;;7.32;6.68;;;24.80;99.90;;;;;;5093385;28;20020;-68
2021/06/29 10:45:15;;;;;;;9.35;8.00;;;24.70;99.90;;;;;;5096408;28;20078;-67
2021/06/29 10:47:41;;;;;;;7.70;6.95;;;24.70;99.90;;;;;;5074325;28;20108;-67
2021/06/29 10:50:14;;;;;;;7.60;6.80;;;24.80;99.90;;;;;;5095240;28;20026;-68
2021/06/29 10:52:41;;;;;;;8.05;7.07;;;24.90;99.90;;;;;;5095032;28;20034;-68
2021/06/29 10:55:27;;;;;;;7.85;6.22;;;24.60;99.90;;;;;;5093645;28;20039;-70
2021/06/29 10:57:56;;;;;;;8.20;7.10;;;24.70;99.90;;;;;;5094572;28;20055;-67
2021/06/29 11:03:06;;;;;;;7.25;6.28;;;24.70;99.90;;;;;;5110299;27;20109;-67
2021/06/29 11:05:39;;;;;;;7.25;6.43;;;24.70;99.90;;;;;;5110824;28;20100;-68
2021/06/29 11:08:09;;;;;;;6.45;5.78;;;24.40;99.90;;;;;;5110414;28;20108;-68
2021/06/29 11:10:37;;;;;;;7.88;7.07;;;24.10;99.90;;;;;;5110268;28;20089;-68
2021/06/29 11:13:04;;;;;;;7.80;6.32;;;23.80;99.90;;;;;;5110795;28;20511;-67
2021/06/29 11:15:52;;;;;;;9.77;6.40;;;23.70;99.90;;;;;;5108710;28;20047;-67
2021/06/29 11:18:21;;;;;;;8.77;7.22;;;24.00;99.90;;;;;;5096119;28;20035;-68
2021/06/29 11:20:51;;;;;;;13.93;9.40;;;24.30;99.90;;;;;;5109435;28;20080;-68
2021/06/29 11:23:31;;;;;;;11.77;10.60;;;24.40;99.90;;;;;;5110540;28;20476;-71
2021/06/29 11:26:17;;;;;;;13.15;11.82;;;25.00;99.90;;;;;;5110629;28;20020;-71
2021/06/29 11:31:30;;;;;;;20.77;17.00;;;25.40;99.90;;;;;;5069933;28;20370;-70
2021/06/29 11:34:15;;;;;;;18.60;16.63;;;25.90;99.90;;;;;;5064008;28;20025;-70
2021/06/29 11:36:44;;;;;;;19.13;17.13;;;26.20;99.90;;;;;;5063381;28;20055;-70
2021/06/29 11:42:08;;;;;;;19.80;17.42;;;26.20;99.90;;;;;;5110768;27;20770;-70
2021/06/29 11:44:35;;;;;;;;;;;25.80;99.90;;;;;;5093069;28;20044;-70
2021/06/29 11:49:46;;;;;;;26.40;22.35;;;26.00;99.90;;;;;;5090215;28;20401;-70
2021/06/29 11:55:06;;;;;;;25.00;22.40;;;26.30;99.90;;;;;;5110512;27;20408;-70
2021/06/29 11:57:54;;;;;;;27.77;24.88;;;25.60;99.90;;;;;;5096399;28;20461;-70
2021/06/29 12:00:36;;;;;;;28.67;25.58;;;25.50;99.90;;;;;;5090482;28;20116;-70
2021/06/29 12:03:13;;;;;;;27.17;24.33;;;25.70;99.90;;;;;;5090388;28;20450;-70
2021/06/29 12:05:40;;;;;;;22.48;20.10;;;26.30;99.90;;;;;;5101502;28;20032;-70
2021/06/29 12:08:08;;;;;;;33.33;26.25;;;26.10;99.90;;;;;;5102125;28;20071;-70
2021/06/29 12:10:39;;;;;;;25.33;22.58;;;25.70;99.90;;;;;;5092115;28;20022;-70
2021/06/29 12:13:10;;;;;;;28.27;24.67;;;25.60;99.90;;;;;;5097778;28;20106;-70
2021/06/29 12:15:43;;;;;;;28.10;25.15;;;25.50;99.90;;;;;;5090151;28;20074;-70
2021/06/29 12:18:13;;;;;;;24.55;22.05;;;25.60;99.90;;;;;;5100396;28;20024;-70
2021/06/29 12:20:48;;;;;;;22.42;20.13;;;25.50;99.90;;;;;;5110389;28;20028;-68
2021/06/29 12:23:15;;;;;;;21.17;18.95;;;25.20;99.90;;;;;;5090158;28;20036;-68
2021/06/29 12:25:48;;;;;;;18.73;15.65;;;25.10;99.90;;;;;;5088913;28;20103;-68
2021/06/29 12:28:17;;;;;;;17.35;15.52;;;25.20;99.90;;;;;;5109312;28;20089;-68
2021/06/29 12:30:49;;;;;;;17.10;15.40;;;25.80;99.90;;;;;;5096818;28;20047;-68
2021/06/29 12:33:37;;;;;;;21.95;18.70;;;26.20;99.90;;;;;;5094251;28;20024;-69
2021/06/29 12:36:07;;;;;;;19.67;17.67;;;26.30;99.90;;;;;;5095391;28;20374;-68
2021/06/29 12:38:37;;;;;;;21.67;19.42;;;26.50;99.90;;;;;;5091722;28;20477;-68
2021/06/29 12:41:06;;;;;;;21.45;18.00;;;26.70;99.90;;;;;;5094080;28;20436;-68
2021/06/29 12:43:38;;;;;;;17.60;15.70;;;26.50;99.90;;;;;;5086203;28;20028;-68
2021/06/29 12:46:23;;;;;;;19.80;17.80;;;26.40;99.90;;;;;;5089327;28;20161;-69
2021/06/29 12:51:43;;;;;;;15.65;14.05;;;26.40;99.90;;;;;;5062705;28;20367;-68
2021/06/29 12:54:10;;;;;;;15.23;13.63;;;26.30;99.90;;;;;;5049708;28;20382;-68
2021/06/29 12:56:56;;;;;;;15.05;13.55;;;26.10;99.90;;;;;;5059254;28;20462;-68
2021/06/29 12:59:27;;;;;;;17.80;15.85;;;26.00;99.90;;;;;;5048822;28;20021;-68
2021/06/29 13:01:56;;;;;;;17.52;14.88;;;25.80;99.90;;;;;;5049919;28;20021;-68
2021/06/29 13:04:25;;;;;;;18.42;16.33;;;25.60;99.90;;;;;;5049800;28;20029;-68
2021/06/29 13:07:02;;;;;;;17.23;15.35;;;25.50;99.90;;;;;;5031799;28;20426;-68
2021/06/29 13:09:33;;;;;;;17.30;15.60;;;25.60;99.90;;;;;;5053655;28;20426;-68
2021/06/29 13:12:01;;;;;;;17.85;15.93;;;25.60;99.90;;;;;;5048545;28;20116;-68
2021/06/29 13:14:29;;;;;;;20.08;17.05;;;26.20;99.90;;;;;;5036216;28;20116;-68
2021/06/29 13:17:13;;;;;;;17.40;15.60;;;26.10;99.90;;;;;;5049139;28;20025;-69
2021/06/29 13:19:39;;;;;;;19.30;17.30;;;26.10;99.90;;;;;;5049364;28;20360;-68
2021/06/29 13:22:09;;;;;;;18.30;16.08;;;25.90;99.90;;;;;;5047588;28;20231;-68